createdAt,value
2018-05-28T00:02:05.188Z,22.60
2018-05-28T00:04:33.278Z,22.50
2018-05-28T00:07:01.371Z,22.40
2018-05-28T00:09:29.417Z,22.30
2018-05-28T00:11:58.246Z,22.30
2018-05-28T00:14:27.048Z,22.30
2018-05-28T00:16:55.108Z,22.20
2018-05-28T00:19:23.944Z,22.20
2018-05-28T00:21:51.987Z,22.20
2018-05-28T00:24:20.059Z,22.20
2018-05-28T00:26:48.100Z,22.20
2018-05-28T00:29:16.276Z,22.20
2018-05-28T00:31:45.083Z,22.20
2018-05-28T00:34:13.802Z,22.20
2018-05-28T00:36:41.912Z,22.20
2018-05-28T00:39:09.983Z,22.10
2018-05-28T00:41:38.069Z,22.10
2018-05-28T00:44:06.918Z,22.10
2018-05-28T00:46:34.970Z,22.10
2018-05-28T00:49:03.043Z,22.00
2018-05-28T00:51:31.086Z,22.10
2018-05-28T00:53:59.174Z,22.00
2018-05-28T00:56:27.251Z,21.90
2018-05-28T00:58:55.332Z,21.90
2018-05-28T01:01:23.407Z,21.90
2018-05-28T01:03:51.482Z,21.80
2018-05-28T01:06:19.543Z,21.90
2018-05-28T01:08:48.366Z,21.80
2018-05-28T01:11:16.438Z,21.80
2018-05-28T01:13:44.518Z,21.80
2018-05-28T01:16:12.592Z,21.80
2018-05-28T01:18:40.653Z,21.80
2018-05-28T01:21:08.728Z,21.80
2018-05-28T01:23:36.799Z,21.60
2018-05-28T01:26:04.911Z,21.80
2018-05-28T01:28:32.982Z,21.80
2018-05-28T01:31:01.054Z,21.70
2018-05-28T01:33:29.121Z,21.70
2018-05-28T01:35:57.968Z,21.50
2018-05-28T01:38:26.045Z,21.40
2018-05-28T01:40:54.358Z,21.40
2018-05-28T01:43:23.207Z,21.30
2018-05-28T01:45:51.287Z,21.40
2018-05-28T01:48:19.347Z,21.30
2018-05-28T01:50:47.481Z,21.30
2018-05-28T01:53:15.549Z,21.20
2018-05-28T01:55:43.602Z,21.20
2018-05-28T01:58:12.470Z,21.20
2018-05-28T02:00:40.555Z,21.10
2018-05-28T02:03:08.582Z,21.20
2018-05-28T02:05:36.654Z,21.20
2018-05-28T02:08:04.733Z,21.10
2018-05-28T02:10:32.790Z,21.00
2018-05-28T02:13:00.842Z,21.00
2018-05-28T02:15:28.914Z,21.00
2018-05-28T02:17:56.991Z,20.90
2018-05-28T02:20:25.054Z,20.90
2018-05-28T02:22:53.122Z,20.90
2018-05-28T02:25:21.205Z,20.80
2018-05-28T02:27:49.279Z,20.80
2018-05-28T02:30:17.329Z,20.70
2018-05-28T02:32:46.157Z,20.70
2018-05-28T02:35:14.202Z,20.70
2018-05-28T02:37:42.263Z,20.70
2018-05-28T02:40:11.080Z,20.70
2018-05-28T02:42:39.150Z,20.60
2018-05-28T02:45:07.217Z,20.60
2018-05-28T02:47:35.357Z,20.60
2018-05-28T02:50:04.185Z,20.60
2018-05-28T02:52:32.255Z,20.60
2018-05-28T02:55:00.322Z,20.50
2018-05-28T02:57:28.394Z,20.50
2018-05-28T02:59:56.465Z,20.40
2018-05-28T03:02:24.534Z,20.40
2018-05-28T03:04:52.589Z,20.30
2018-05-28T03:07:21.429Z,20.30
2018-05-28T03:09:49.497Z,20.30
2018-05-28T03:12:17.571Z,20.30
2018-05-28T03:14:45.628Z,20.20
2018-05-28T03:17:13.680Z,20.20
2018-05-28T03:19:41.751Z,20.20
2018-05-28T03:22:09.778Z,20.20
2018-05-28T03:24:37.894Z,20.20
2018-05-28T03:27:05.943Z,20.20
2018-05-28T03:29:34.811Z,20.10
2018-05-28T03:32:02.881Z,20.10
2018-05-28T03:34:30.959Z,20.10
2018-05-28T03:36:59.814Z,20.10
2018-05-28T03:39:28.635Z,20.10
2018-05-28T03:41:56.721Z,20.10
2018-05-28T03:44:25.538Z,20.00
2018-05-28T03:46:53.598Z,20.10
2018-05-28T03:49:21.674Z,20.10
2018-05-28T03:51:49.779Z,20.10
2018-05-28T03:54:17.832Z,20.10
2018-05-28T03:56:45.877Z,20.10
2018-05-28T03:59:13.952Z,20.10
2018-05-28T04:01:54.533Z,20.20
2018-05-28T04:04:23.409Z,20.10
2018-05-28T04:06:51.458Z,20.10
2018-05-28T04:09:32.125Z,20.10
2018-05-28T04:12:00.969Z,20.10
2018-05-28T04:14:29.031Z,20.10
2018-05-28T04:16:57.118Z,20.00
2018-05-28T04:19:25.224Z,20.00
2018-05-28T04:21:53.297Z,20.00
2018-05-28T04:24:21.392Z,20.00
2018-05-28T04:26:50.229Z,20.00
2018-05-28T04:29:19.066Z,20.00
2018-05-28T04:31:47.890Z,20.10
2018-05-28T04:34:15.987Z,20.10
2018-05-28T04:36:44.060Z,20.20
2018-05-28T04:39:12.123Z,20.30
2018-05-28T04:41:40.178Z,20.30
2018-05-28T04:44:08.236Z,20.30
2018-05-28T04:46:36.327Z,20.30
2018-05-28T04:49:04.390Z,20.30
2018-05-28T04:51:32.475Z,20.30
2018-05-28T04:54:00.535Z,20.30
2018-05-28T04:56:28.557Z,20.30
2018-05-28T04:58:56.671Z,20.30
2018-05-28T05:01:24.712Z,20.30
2018-05-28T05:03:53.574Z,20.40
2018-05-28T05:06:21.643Z,20.40
2018-05-28T05:08:49.710Z,20.50
2018-05-28T05:11:17.802Z,20.50
2018-05-28T05:13:46.644Z,20.70
2018-05-28T05:16:14.705Z,20.80
2018-05-28T05:18:43.538Z,20.90
2018-05-28T05:21:11.701Z,21.00
2018-05-28T05:23:39.747Z,21.10
2018-05-28T05:26:07.792Z,21.20
2018-05-28T05:28:35.863Z,21.30
2018-05-28T05:31:03.937Z,21.50
2018-05-28T05:33:32.008Z,21.60
2018-05-28T05:36:00.123Z,21.80
2018-05-28T05:38:28.182Z,22.10
2018-05-28T05:40:56.243Z,22.00
2018-05-28T05:43:24.322Z,22.10
2018-05-28T05:45:52.409Z,22.30
2018-05-28T05:48:20.478Z,22.70
2018-05-28T05:50:48.554Z,23.20
2018-05-28T05:53:16.591Z,24.00
2018-05-28T05:55:44.686Z,24.20
2018-05-28T05:58:12.746Z,24.40
2018-05-28T06:00:40.810Z,24.90
2018-05-28T06:03:08.897Z,26.00
2018-05-28T06:05:36.983Z,27.20
2018-05-28T06:08:05.041Z,27.80
2018-05-28T06:10:33.081Z,27.90
2018-05-28T06:13:01.190Z,26.70
2018-05-28T06:15:29.242Z,25.90
2018-05-28T06:17:57.316Z,25.40
2018-05-28T06:20:25.419Z,25.40
2018-05-28T06:22:54.270Z,25.30
2018-05-28T06:25:22.334Z,25.20
2018-05-28T06:27:50.434Z,24.90
2018-05-28T06:30:18.562Z,24.70
2018-05-28T06:32:47.390Z,24.60
2018-05-28T06:35:15.546Z,24.60
2018-05-28T06:37:43.609Z,26.20
2018-05-28T06:40:11.698Z,27.10
2018-05-28T06:42:39.751Z,28.20
2018-05-28T06:45:08.706Z,29.70
2018-05-28T06:47:45.557Z,29.70
2018-05-28T06:50:13.630Z,30.40
2018-05-28T06:52:41.682Z,30.30
2018-05-28T06:55:09.746Z,30.00
2018-05-28T06:57:37.801Z,30.20
2018-05-28T07:00:05.886Z,29.70
2018-05-28T07:02:34.358Z,29.00
2018-05-28T07:05:02.411Z,28.30
2018-05-28T07:07:31.233Z,27.80
2018-05-28T07:09:59.314Z,27.70
2018-05-28T07:12:27.371Z,27.30
2018-05-28T07:14:55.437Z,27.30
2018-05-28T07:17:24.723Z,27.10
2018-05-28T07:19:56.619Z,27.00
2018-05-28T07:22:24.777Z,26.70
2018-05-28T07:24:52.840Z,26.60
2018-05-28T07:27:21.661Z,26.30
2018-05-28T07:29:49.769Z,26.30
2018-05-28T07:32:17.766Z,26.30
2018-05-28T07:34:45.831Z,26.30
2018-05-28T07:37:13.895Z,26.30
2018-05-28T07:39:42.804Z,26.10
2018-05-28T07:42:11.614Z,26.20
2018-05-28T07:44:39.662Z,26.20
2018-05-28T07:47:08.500Z,26.30
2018-05-28T07:49:36.541Z,26.30
2018-05-28T07:52:04.644Z,27.40
2018-05-28T07:54:33.465Z,28.10
2018-05-28T07:57:02.314Z,28.60
2018-05-28T07:59:30.407Z,28.60
2018-05-28T08:01:58.458Z,29.20
2018-05-28T08:04:26.526Z,30.10
2018-05-28T08:06:54.664Z,31.10
2018-05-28T08:09:22.719Z,32.00
2018-05-28T08:11:50.793Z,31.90
2018-05-28T08:14:18.841Z,31.50
2018-05-28T08:16:46.917Z,30.90
2018-05-28T08:19:14.987Z,31.40
2018-05-28T08:21:43.080Z,32.60
2018-05-28T08:24:11.141Z,34.10
2018-05-28T08:26:40.009Z,35.60
2018-05-28T08:29:08.045Z,35.50
2018-05-28T08:31:36.119Z,36.40
2018-05-28T08:34:04.201Z,36.90
2018-05-28T08:36:32.349Z,37.70
2018-05-28T08:39:00.416Z,38.10
2018-05-28T08:41:28.453Z,38.90
2018-05-28T08:43:56.497Z,40.10
2018-05-28T08:46:25.335Z,41.80
2018-05-28T08:48:54.156Z,42.30
2018-05-28T08:51:22.246Z,42.60
2018-05-28T08:53:50.267Z,43.20
2018-05-28T08:56:19.248Z,43.60
2018-05-28T08:58:47.314Z,43.60
2018-05-28T09:01:15.909Z,44.00
2018-05-28T09:03:43.960Z,44.80
2018-05-28T09:06:12.032Z,45.00
2018-05-28T09:08:40.073Z,45.10
2018-05-28T09:11:08.146Z,45.40
2018-05-28T09:13:36.205Z,45.50
2018-05-28T09:16:04.272Z,45.30
2018-05-28T09:18:32.742Z,45.90
2018-05-28T09:21:00.834Z,45.90
2018-05-28T09:23:28.883Z,46.30
2018-05-28T09:25:57.362Z,46.90
2018-05-28T09:28:25.415Z,47.30
2018-05-28T09:30:54.267Z,47.70
2018-05-28T09:33:22.326Z,47.70
2018-05-28T09:35:50.392Z,48.00
2018-05-28T09:38:18.537Z,47.90
2018-05-28T09:40:46.578Z,48.00
2018-05-28T09:43:14.676Z,48.10
2018-05-28T09:48:12.153Z,48.20
2018-05-28T09:50:40.227Z,48.10
2018-05-28T09:53:08.300Z,48.50
2018-05-28T09:55:37.125Z,48.80
2018-05-28T09:58:06.117Z,48.80
2018-05-28T10:00:34.185Z,48.60
2018-05-28T10:03:02.239Z,49.20
2018-05-28T10:05:30.307Z,49.20
2018-05-28T10:07:58.362Z,48.80
2018-05-28T10:10:26.447Z,48.90
2018-05-28T10:12:54.544Z,48.70
2018-05-28T10:15:22.626Z,48.70
2018-05-28T10:17:50.683Z,48.20
2018-05-28T10:20:18.753Z,48.10
2018-05-28T10:22:46.870Z,48.20
2018-05-28T10:25:14.892Z,48.50
2018-05-28T10:27:42.975Z,48.20
2018-05-28T10:30:11.041Z,48.10
2018-05-28T10:32:39.105Z,48.10
2018-05-28T10:35:07.158Z,47.80
2018-05-28T10:37:35.375Z,47.40
2018-05-28T10:40:03.431Z,47.40
2018-05-28T10:42:31.502Z,47.10
2018-05-28T10:44:59.641Z,46.60
2018-05-28T10:47:27.688Z,46.10
2018-05-28T10:49:55.759Z,46.00
2018-05-28T10:52:23.891Z,45.40
2018-05-28T10:54:52.679Z,45.10
2018-05-28T10:57:21.145Z,44.80
2018-05-28T10:59:49.218Z,44.10
2018-05-28T11:02:17.290Z,43.80
2018-05-28T11:04:45.352Z,43.40
2018-05-28T11:07:13.461Z,42.90
2018-05-28T11:09:41.478Z,42.80
2018-05-28T11:12:09.553Z,43.20
2018-05-28T11:14:38.374Z,43.20
2018-05-28T11:17:06.435Z,43.00
2018-05-28T11:19:34.505Z,43.00
2018-05-28T11:22:02.561Z,42.30
2018-05-28T11:24:31.576Z,42.30
2018-05-28T11:26:59.623Z,42.30
2018-05-28T11:29:27.655Z,42.00
2018-05-28T11:31:55.770Z,41.70
2018-05-28T11:34:24.570Z,41.50
2018-05-28T11:36:52.626Z,41.40
2018-05-28T11:39:20.711Z,41.20
2018-05-28T11:41:48.782Z,41.00
2018-05-28T11:44:16.822Z,41.10
2018-05-28T11:46:45.684Z,41.40
2018-05-28T11:49:13.750Z,41.40
2018-05-28T11:51:41.823Z,41.30
2018-05-28T11:54:09.951Z,40.90
2018-05-28T11:56:38.019Z,40.70
2018-05-28T11:59:06.829Z,39.90
2018-05-28T12:01:34.880Z,39.00
2018-05-28T12:04:02.970Z,39.10
2018-05-28T12:06:31.009Z,39.10
2018-05-28T12:09:00.367Z,39.00
2018-05-28T12:11:28.430Z,39.00
2018-05-28T12:13:56.485Z,38.90
2018-05-28T12:16:24.567Z,39.00
2018-05-28T12:18:52.637Z,39.00
2018-05-28T12:21:20.708Z,38.60
2018-05-28T12:23:48.762Z,38.50
2018-05-28T12:26:16.831Z,38.30
2018-05-28T12:28:44.870Z,38.10
2018-05-28T12:31:13.710Z,37.10
2018-05-28T12:33:41.777Z,37.10
2018-05-28T12:36:09.870Z,36.90
2018-05-28T12:38:37.927Z,37.00
2018-05-28T12:41:06.019Z,37.20
2018-05-28T12:43:34.111Z,37.40
2018-05-28T12:46:02.166Z,37.60
2018-05-28T12:48:30.238Z,37.20
2018-05-28T12:50:58.300Z,37.10
2018-05-28T12:53:27.750Z,36.10
2018-05-28T12:55:56.565Z,36.00
2018-05-28T12:58:24.654Z,35.90
2018-05-28T13:00:52.727Z,35.90
2018-05-28T13:03:20.803Z,35.90
2018-05-28T13:05:48.902Z,35.60
2018-05-28T13:08:17.368Z,35.30
2018-05-28T13:10:45.495Z,35.40
2018-05-28T13:13:13.538Z,35.60
2018-05-28T13:15:42.348Z,35.90
2018-05-28T13:18:11.153Z,36.00
2018-05-28T13:20:39.316Z,36.00
2018-05-28T13:23:07.407Z,35.90
2018-05-28T13:25:36.205Z,35.50
2018-05-28T13:28:05.074Z,35.50
2018-05-28T13:30:33.146Z,35.50
2018-05-28T13:33:01.203Z,35.30
2018-05-28T13:35:30.063Z,35.20
2018-05-28T13:37:58.949Z,35.20
2018-05-28T13:40:26.974Z,35.20
2018-05-28T13:42:55.035Z,35.00
2018-05-28T13:45:23.128Z,34.50
2018-05-28T13:47:51.172Z,34.50
2018-05-28T13:50:19.316Z,34.50
2018-05-28T13:52:47.412Z,34.70
2018-05-28T13:55:16.249Z,34.80
2018-05-28T13:57:44.313Z,34.80
2018-05-28T14:00:12.427Z,35.10
2018-05-28T14:02:40.428Z,35.10
2018-05-28T14:05:08.678Z,35.20
2018-05-28T14:07:36.748Z,35.20
2018-05-28T14:10:04.788Z,35.10
2018-05-28T14:12:32.850Z,35.10
2018-05-28T14:15:00.918Z,35.10
2018-05-28T14:17:28.987Z,35.30
2018-05-28T14:19:57.074Z,35.30
2018-05-28T14:22:25.986Z,35.40
2018-05-28T14:24:54.058Z,35.40
2018-05-28T14:27:22.127Z,35.40
2018-05-28T14:29:50.202Z,35.30
2018-05-28T14:32:18.269Z,35.20
2018-05-28T14:34:46.368Z,35.30
2018-05-28T14:37:14.421Z,35.30
2018-05-28T14:39:42.494Z,34.90
2018-05-28T14:42:10.577Z,34.90
2018-05-28T14:44:39.413Z,34.50
2018-05-28T14:47:07.464Z,34.40
2018-05-28T14:49:35.542Z,34.30
2018-05-28T14:52:03.594Z,34.20
2018-05-28T14:54:31.669Z,34.00
2018-05-28T14:57:00.245Z,33.80
2018-05-28T14:59:28.338Z,33.70
2018-05-28T15:01:56.418Z,33.60
2018-05-28T15:04:24.540Z,33.50
2018-05-28T15:06:52.602Z,33.50
2018-05-28T15:09:20.823Z,33.50
2018-05-28T15:11:48.874Z,33.40
2018-05-28T15:14:17.739Z,33.40
2018-05-28T15:16:45.773Z,33.50
2018-05-28T15:19:13.851Z,33.50
2018-05-28T15:21:41.952Z,33.60
2018-05-28T15:24:10.750Z,33.50
2018-05-28T15:26:38.802Z,33.60
2018-05-28T15:29:06.971Z,33.50
2018-05-28T15:31:35.685Z,33.40
2018-05-28T15:34:04.537Z,33.30
2018-05-28T15:36:32.583Z,33.20
2018-05-28T15:39:00.654Z,33.20
2018-05-28T15:41:28.841Z,33.10
2018-05-28T15:43:56.841Z,33.00
2018-05-28T15:46:24.891Z,32.90
2018-05-28T15:48:52.950Z,32.90
2018-05-28T15:51:21.101Z,32.80
2018-05-28T15:53:49.104Z,32.80
2018-05-28T15:56:17.185Z,32.80
2018-05-28T15:58:45.256Z,32.60
2018-05-28T16:01:13.327Z,32.60
2018-05-28T16:03:41.390Z,32.50
2018-05-28T16:06:09.455Z,32.50
2018-05-28T16:08:37.522Z,32.50
2018-05-28T16:11:05.613Z,32.40
2018-05-28T16:13:34.473Z,32.40
2018-05-28T16:16:02.551Z,32.30
2018-05-28T16:18:30.630Z,32.30
2018-05-28T16:20:58.709Z,32.30
2018-05-28T16:23:26.777Z,32.30
2018-05-28T16:25:54.824Z,32.40
2018-05-28T16:28:22.869Z,32.30
2018-05-28T16:30:50.943Z,32.30
2018-05-28T16:33:20.138Z,32.20
2018-05-28T16:35:48.242Z,32.10
2018-05-28T16:38:16.279Z,32.20
2018-05-28T16:40:45.170Z,32.10
2018-05-28T16:43:13.302Z,32.00
2018-05-28T16:45:41.366Z,32.10
2018-05-28T16:48:09.437Z,32.10
2018-05-28T16:50:37.520Z,32.20
2018-05-28T16:53:05.559Z,32.20
2018-05-28T16:55:33.630Z,32.20
2018-05-28T16:58:01.671Z,32.20
2018-05-28T17:00:29.803Z,32.10
2018-05-28T17:02:57.944Z,32.10
2018-05-28T17:05:25.990Z,32.00
2018-05-28T17:07:54.724Z,31.90
2018-05-28T17:10:22.798Z,31.90
2018-05-28T17:12:50.846Z,31.80
2018-05-28T17:15:18.918Z,31.60
2018-05-28T17:17:47.721Z,31.50
2018-05-28T17:20:15.789Z,31.40
2018-05-28T17:22:44.234Z,31.30
2018-05-28T17:25:13.059Z,31.30
2018-05-28T17:27:41.220Z,31.30
2018-05-28T17:30:09.235Z,31.30
2018-05-28T17:32:37.313Z,31.30
2018-05-28T17:35:05.381Z,31.20
2018-05-28T17:37:34.742Z,31.10
2018-05-28T17:40:02.804Z,31.20
2018-05-28T17:42:31.675Z,31.20
2018-05-28T17:44:59.741Z,31.20
2018-05-28T17:47:27.833Z,31.10
2018-05-28T17:49:56.661Z,31.00
2018-05-28T17:52:24.740Z,31.00
2018-05-28T17:54:53.693Z,30.90
2018-05-28T17:57:21.811Z,30.80
2018-05-28T17:59:49.846Z,30.80
2018-05-28T18:02:17.948Z,30.80
2018-05-28T18:04:46.570Z,30.80
2018-05-28T18:07:14.663Z,30.80
2018-05-28T18:09:43.463Z,30.80
2018-05-28T18:12:11.522Z,30.70
2018-05-28T18:14:39.601Z,30.70
2018-05-28T18:17:07.651Z,30.60
2018-05-28T18:19:35.701Z,30.50
2018-05-28T18:22:03.808Z,30.50
2018-05-28T18:24:32.669Z,30.40
2018-05-28T18:27:00.756Z,30.40
2018-05-28T18:29:29.573Z,30.30
2018-05-28T18:31:57.710Z,30.30
2018-05-28T18:34:26.805Z,30.20
2018-05-28T18:36:54.888Z,30.20
2018-05-28T18:39:23.714Z,30.10
2018-05-28T18:41:51.947Z,30.10
2018-05-28T18:44:20.098Z,30.10
2018-05-28T18:46:48.192Z,30.00
2018-05-28T18:49:16.271Z,30.00
2018-05-28T18:51:45.101Z,30.00
2018-05-28T18:54:14.311Z,29.90
2018-05-28T18:56:42.375Z,29.90
2018-05-28T18:59:10.437Z,29.80
2018-05-28T19:01:38.516Z,29.80
2018-05-28T19:04:06.589Z,29.70
2018-05-28T19:06:35.382Z,29.70
2018-05-28T19:09:03.537Z,29.60
2018-05-28T19:11:31.703Z,29.60
2018-05-28T19:14:00.994Z,29.50
2018-05-28T19:16:30.094Z,29.50
2018-05-28T19:18:58.120Z,29.40
2018-05-28T19:21:26.853Z,29.40
2018-05-28T19:23:55.709Z,29.30
2018-05-28T19:26:23.745Z,29.30
2018-05-28T19:28:52.007Z,29.20
2018-05-28T19:31:20.030Z,29.10
2018-05-28T19:33:48.104Z,29.10
2018-05-28T19:36:16.171Z,29.10
2018-05-28T19:38:44.239Z,29.00
2018-05-28T19:41:12.301Z,28.90
2018-05-28T19:43:40.357Z,28.90
2018-05-28T19:46:08.430Z,28.80
2018-05-28T19:48:37.280Z,28.80
2018-05-28T19:51:05.317Z,28.80
2018-05-28T19:53:33.378Z,28.70
2018-05-28T19:56:01.463Z,28.70
2018-05-28T19:58:29.526Z,28.60
2018-05-28T20:00:57.568Z,28.60
2018-05-28T20:03:26.380Z,28.50
2018-05-28T20:05:54.458Z,28.50
2018-05-28T20:08:24.836Z,28.40
2018-05-28T20:10:53.593Z,28.40
2018-05-28T20:13:22.442Z,28.40
2018-05-28T20:15:51.618Z,28.30
2018-05-28T20:18:20.814Z,28.30
2018-05-28T20:20:48.889Z,28.30
2018-05-28T20:23:16.953Z,28.30
2018-05-28T20:25:44.992Z,28.20
2018-05-28T20:28:13.674Z,28.30
2018-05-28T20:30:42.571Z,28.30
2018-05-28T20:33:10.602Z,28.30
2018-05-28T20:35:38.917Z,28.20
2018-05-28T20:38:06.956Z,28.30
2018-05-28T20:40:35.010Z,28.20
2018-05-28T20:43:03.062Z,28.20
2018-05-28T20:45:31.456Z,30.50
2018-05-28T20:47:59.533Z,28.20
2018-05-28T20:50:27.551Z,28.10
2018-05-28T20:52:56.378Z,28.10
2018-05-28T20:55:25.151Z,28.10
2018-05-28T20:57:53.958Z,28.00
2018-05-28T21:00:22.004Z,27.90
2018-05-28T21:02:52.117Z,27.90
2018-05-28T21:05:20.938Z,27.80
2018-05-28T21:07:49.043Z,27.70
2018-05-28T21:10:18.584Z,27.70
2018-05-28T21:15:15.966Z,27.60
2018-05-28T21:17:44.100Z,27.50
2018-05-28T21:20:12.159Z,27.50
2018-05-28T21:22:40.229Z,27.40
2018-05-28T21:25:08.374Z,27.40
2018-05-28T21:27:37.322Z,27.30
2018-05-28T21:30:06.152Z,27.20
2018-05-28T21:32:34.222Z,27.10
2018-05-28T21:35:03.040Z,27.00
2018-05-28T21:37:31.081Z,27.00
2018-05-28T21:39:59.147Z,27.00
2018-05-28T21:42:27.185Z,26.90
2018-05-28T21:44:55.285Z,26.80
2018-05-28T21:47:23.347Z,26.80
2018-05-28T21:49:52.251Z,26.70
2018-05-28T21:52:20.261Z,26.60
2018-05-28T21:54:48.425Z,26.60
2018-05-28T21:57:16.462Z,26.60
2018-05-28T21:59:44.523Z,26.60
2018-05-28T22:02:13.369Z,26.50
2018-05-28T22:04:41.448Z,26.40
2018-05-28T22:07:11.422Z,26.30
2018-05-28T22:09:40.235Z,26.30
2018-05-28T22:12:23.163Z,26.30
2018-05-28T22:14:51.262Z,26.30
2018-05-28T22:17:19.341Z,26.30
2018-05-28T22:19:47.894Z,26.20
2018-05-28T22:22:16.734Z,26.20
2018-05-28T22:24:44.750Z,26.20
2018-05-28T22:27:12.847Z,26.10
2018-05-28T22:29:40.925Z,26.10
2018-05-28T22:32:09.015Z,26.00
2018-05-28T22:34:37.100Z,25.90
2018-05-28T22:37:05.905Z,25.80
2018-05-28T22:39:33.946Z,25.80
2018-05-28T22:42:02.010Z,25.80
2018-05-28T22:44:30.846Z,25.60
2018-05-28T22:46:58.942Z,25.60
2018-05-28T22:49:27.523Z,25.60
2018-05-28T22:51:55.563Z,25.50
2018-05-28T22:54:23.628Z,25.50
2018-05-28T22:56:51.706Z,25.40
2018-05-28T22:59:19.771Z,25.40
2018-05-28T23:01:47.865Z,25.30
2018-05-28T23:04:15.914Z,25.30
2018-05-28T23:06:44.292Z,25.30
2018-05-28T23:09:12.963Z,25.20
2018-05-28T23:11:41.011Z,25.20
2018-05-28T23:14:09.854Z,25.10
2018-05-28T23:16:38.190Z,25.10
2018-05-28T23:19:07.014Z,25.00
2018-05-28T23:21:35.094Z,25.00
2018-05-28T23:24:03.175Z,25.00
2018-05-28T23:26:31.346Z,25.00
2018-05-28T23:28:59.439Z,24.90
2018-05-28T23:31:27.487Z,24.90
2018-05-28T23:33:55.550Z,24.80
2018-05-28T23:36:23.610Z,24.80
2018-05-28T23:38:51.700Z,24.80
2018-05-28T23:41:19.800Z,24.70
2018-05-28T23:43:47.855Z,24.70
2018-05-28T23:46:15.912Z,24.70
2018-05-28T23:48:43.984Z,24.60
2018-05-28T23:51:12.047Z,24.50
2018-05-28T23:53:40.095Z,24.50
2018-05-28T23:56:08.171Z,24.40
2018-05-28T23:58:36.256Z,24.40
